El Alamein International Airport


Codes: HEAL/DBB
Name: El Alamein International Airport
City: El Alamein
Country: Egypt
Elevation: 143 ft.

Photos at El Alamein International Airport


   Photos courtesy of SpottingLog. You can add your own sightings and photos by signing up for a free trial today.



No photos found.

Weather at El Alamein International Airport


Time (UTC)DescriptionTempratureWindCloud coverageVisibilityPressureHumidity
21-Feb-2024 03:00Clear Sky13°C4 mph, NW1%10000m1021hPa71%
21-Feb-2024 06:00Clear Sky13°C2 mph, NW1%10000m1021hPa70%
21-Feb-2024 09:00Clear Sky15°C4 mph, E0%10000m1022hPa61%
21-Feb-2024 12:00Clear Sky18°C7 mph, NE2%10000m1022hPa51%
21-Feb-2024 15:00Clear Sky17°C11 mph, NE5%10000m1022hPa56%
21-Feb-2024 18:00Clear Sky15°C9 mph, NE2%10000m1022hPa62%
21-Feb-2024 21:00Clear Sky15°C7 mph, NE0%10000m1023hPa71%
22-Feb-2024 00:00Clear Sky14°C7 mph, NE0%10000m1022hPa71%
22-Feb-2024 03:00Clear Sky13°C7 mph, E0%10000m1022hPa73%
22-Feb-2024 06:00Clear Sky14°C4 mph, E0%10000m1023hPa73%
22-Feb-2024 09:00Clear Sky17°C9 mph, NE6%10000m1023hPa62%
22-Feb-2024 12:00Few Clouds18°C11 mph, NE14%10000m1021hPa58%
22-Feb-2024 15:00Broken Clouds17°C13 mph, NE54%10000m1021hPa63%
22-Feb-2024 18:00Scattered Clouds16°C9 mph, NE29%10000m1022hPa67%
22-Feb-2024 21:00Scattered Clouds15°C9 mph, NE47%10000m1022hPa69%
23-Feb-2024 00:00Broken Clouds15°C7 mph, E73%10000m1022hPa70%
23-Feb-2024 03:00Overcast Clouds14°C9 mph, NE100%10000m1021hPa71%
23-Feb-2024 06:00Overcast Clouds15°C9 mph, E100%10000m1021hPa72%
23-Feb-2024 09:00Overcast Clouds17°C16 mph, E100%10000m1022hPa60%
23-Feb-2024 12:00Overcast Clouds17°C11 mph, E100%10000m1021hPa60%
23-Feb-2024 15:00Overcast Clouds17°C13 mph, E100%10000m1020hPa63%
23-Feb-2024 18:00Overcast Clouds16°C16 mph, NE100%10000m1019hPa68%
23-Feb-2024 21:00Overcast Clouds16°C9 mph, NE100%10000m1020hPa71%
24-Feb-2024 00:00Light Rain16°C9 mph, N100%10000m1020hPa77%
24-Feb-2024 03:00Moderate Rain14°C13 mph, N100%10000m1021hPa88%
24-Feb-2024 06:00Light Rain14°C11 mph, NE99%10000m1022hPa79%
24-Feb-2024 09:00Broken Clouds17°C13 mph, NE75%10000m1022hPa66%
24-Feb-2024 12:00Scattered Clouds18°C13 mph, NE50%10000m1020hPa61%
24-Feb-2024 15:00Clear Sky17°C11 mph, NE1%10000m1020hPa63%
24-Feb-2024 18:00Clear Sky16°C9 mph, NE0%10000m1021hPa71%
24-Feb-2024 21:00Clear Sky15°C9 mph, NE0%10000m1022hPa75%
25-Feb-2024 00:00Clear Sky15°C7 mph, NE0%10000m1021hPa78%
25-Feb-2024 03:00Clear Sky14°C4 mph, E3%10000m1020hPa81%
25-Feb-2024 06:00Clear Sky14°C4 mph, E1%10000m1021hPa79%
25-Feb-2024 09:00Clear Sky18°C9 mph, SE0%10000m1020hPa62%
25-Feb-2024 12:00Clear Sky20°C7 mph, SE0%10000m1017hPa47%
25-Feb-2024 15:00Clear Sky20°C9 mph, E4%10000m1015hPa47%
25-Feb-2024 18:00Clear Sky17°C9 mph, E2%10000m1015hPa69%
25-Feb-2024 21:00Clear Sky16°C9 mph, SE2%10000m1013hPa74%
26-Feb-2024 00:00Scattered Clouds15°C11 mph, SE34%10000m1011hPa63%